createdAt,value
2018-09-06T00:00:38.112Z,10.60
2018-09-06T00:03:06.480Z,12.03
2018-09-06T00:05:34.982Z,11.30
2018-09-06T00:08:03.610Z,11.40
2018-09-06T00:10:31.918Z,11.93
2018-09-06T00:13:00.328Z,11.77
2018-09-06T00:15:28.700Z,11.47
2018-09-06T00:17:57.119Z,11.70
2018-09-06T00:20:25.474Z,10.53
2018-09-06T00:22:53.929Z,10.90
2018-09-06T00:25:22.333Z,11.93
2018-09-06T00:27:50.756Z,11.57
2018-09-06T00:30:19.157Z,10.60
2018-09-06T00:32:47.593Z,11.10
2018-09-06T00:35:16.023Z,11.07
2018-09-06T00:37:44.440Z,11.33
2018-09-06T00:40:13.000Z,11.27
2018-09-06T00:42:41.868Z,10.60
2018-09-06T00:45:10.313Z,11.83
2018-09-06T00:47:38.765Z,11.80
2018-09-06T00:50:13.891Z,11.20
2018-09-06T00:52:42.263Z,10.73
2018-09-06T00:55:10.642Z,11.07
2018-09-06T00:57:38.967Z,11.40
2018-09-06T01:00:07.447Z,10.87
2018-09-06T01:02:35.820Z,11.67
2018-09-06T01:05:04.182Z,11.13
2018-09-06T01:07:32.559Z,10.80
2018-09-06T01:10:00.950Z,11.00
2018-09-06T01:12:29.534Z,12.27
2018-09-06T01:14:57.939Z,11.90
2018-09-06T01:17:26.305Z,11.73
2018-09-06T01:19:54.642Z,11.60
2018-09-06T01:22:22.996Z,11.30
2018-09-06T01:24:51.348Z,11.80
2018-09-06T01:27:19.666Z,12.30
2018-09-06T01:29:48.022Z,11.20
2018-09-06T01:32:16.399Z,11.37
2018-09-06T01:34:44.750Z,11.10
2018-09-06T01:37:13.251Z,10.90
2018-09-06T01:39:41.707Z,11.90
2018-09-06T01:42:10.109Z,12.10
2018-09-06T01:44:38.477Z,12.13
2018-09-06T01:47:06.938Z,12.10
2018-09-06T01:49:35.360Z,11.27
2018-09-06T01:52:03.772Z,12.90
2018-09-06T01:54:32.147Z,11.60
2018-09-06T01:57:07.023Z,13.00
2018-09-06T01:59:36.767Z,12.10
2018-09-06T02:02:05.166Z,11.40
2018-09-06T02:04:33.467Z,12.00
2018-09-06T02:07:01.842Z,12.97
2018-09-06T02:09:30.106Z,13.23
2018-09-06T02:11:58.372Z,12.60
2018-09-06T02:14:26.741Z,12.50
2018-09-06T02:16:55.072Z,14.00
2018-09-06T02:19:23.502Z,12.07
2018-09-06T02:21:51.866Z,12.57
2018-09-06T02:24:20.361Z,13.10
2018-09-06T02:26:49.048Z,12.83
2018-09-06T02:29:17.458Z,12.80
2018-09-06T02:31:45.858Z,12.80
2018-09-06T02:34:14.304Z,13.60
2018-09-06T02:36:42.694Z,13.53
2018-09-06T02:39:11.686Z,12.50
2018-09-06T02:41:40.058Z,13.10
2018-09-06T02:44:08.994Z,12.67
2018-09-06T02:46:37.535Z,13.00
2018-09-06T02:49:05.979Z,12.97
2018-09-06T02:51:34.335Z,13.57
2018-09-06T02:54:02.741Z,12.30
2018-09-06T02:56:30.978Z,13.40
2018-09-06T02:58:59.290Z,12.97
2018-09-06T03:01:27.688Z,12.83
2018-09-06T03:03:56.004Z,13.07
2018-09-06T03:06:24.403Z,13.07
2018-09-06T03:08:52.768Z,13.90
2018-09-06T03:11:26.215Z,13.70
2018-09-06T03:13:54.502Z,13.70
2018-09-06T03:16:22.932Z,14.63
2018-09-06T03:18:51.205Z,13.30
2018-09-06T03:21:19.991Z,14.40
2018-09-06T03:23:48.250Z,13.70
2018-09-06T03:26:17.107Z,13.73
2018-09-06T03:28:46.082Z,13.40
2018-09-06T03:31:14.983Z,13.20
2018-09-06T03:33:43.454Z,14.33
2018-09-06T03:36:11.875Z,13.70
2018-09-06T03:38:40.190Z,13.70
2018-09-06T03:41:08.487Z,14.00
2018-09-06T03:43:36.739Z,14.10
2018-09-06T03:46:06.404Z,13.50
2018-09-06T03:48:34.667Z,13.20
2018-09-06T03:51:03.063Z,15.07
2018-09-06T03:53:31.320Z,13.73
2018-09-06T03:55:59.570Z,14.13
2018-09-06T03:58:27.842Z,14.60
2018-09-06T04:00:56.103Z,14.10
2018-09-06T04:03:24.393Z,13.93
2018-09-06T04:05:52.639Z,14.07
2018-09-06T04:08:20.939Z,14.40
2018-09-06T04:10:49.203Z,13.90
2018-09-06T04:13:17.475Z,13.97
2018-09-06T04:15:45.760Z,14.00
2018-09-06T04:18:14.167Z,15.00
2018-09-06T04:20:42.445Z,14.00
2018-09-06T04:23:10.702Z,14.30
2018-09-06T04:25:38.970Z,14.40
2018-09-06T04:28:07.228Z,14.20
2018-09-06T04:30:35.488Z,15.37
2018-09-06T04:33:03.738Z,14.40
2018-09-06T04:35:32.076Z,15.00
2018-09-06T04:38:00.283Z,15.07
2018-09-06T04:40:28.550Z,15.20
2018-09-06T04:42:57.875Z,15.67
2018-09-06T04:45:26.169Z,16.40
2018-09-06T04:47:54.496Z,14.40
2018-09-06T04:50:22.757Z,14.90
2018-09-06T04:52:51.092Z,14.97
2018-09-06T04:55:19.470Z,16.10
2018-09-06T04:57:47.734Z,16.20
2018-09-06T05:00:16.178Z,15.10
2018-09-06T05:02:44.528Z,16.00
2018-09-06T05:05:12.846Z,15.33
2018-09-06T05:07:41.195Z,15.27
2018-09-06T05:10:09.490Z,14.90
2018-09-06T05:12:37.796Z,13.93
2018-09-06T05:15:06.107Z,14.97
2018-09-06T05:17:34.387Z,15.77
2018-09-06T05:20:02.781Z,15.53
2018-09-06T05:22:31.140Z,14.83
2018-09-06T05:24:59.424Z,14.93
2018-09-06T05:27:27.906Z,13.67
2018-09-06T05:29:56.247Z,14.40
2018-09-06T05:32:24.647Z,14.10
2018-09-06T05:34:52.947Z,14.37
2018-09-06T05:37:21.267Z,14.27
2018-09-06T05:39:49.587Z,15.20
2018-09-06T05:42:18.028Z,14.10
2018-09-06T05:44:46.322Z,14.83
2018-09-06T05:47:14.635Z,15.10
2018-09-06T05:49:42.899Z,14.27
2018-09-06T05:52:11.183Z,14.60
2018-09-06T05:54:39.454Z,16.03
2018-09-06T05:57:07.723Z,15.67
2018-09-06T05:59:36.052Z,14.40
2018-09-06T06:02:04.283Z,15.20
2018-09-06T06:04:32.537Z,14.30
2018-09-06T06:07:00.880Z,14.33
2018-09-06T06:09:29.139Z,13.80
2018-09-06T06:11:57.554Z,15.40
2018-09-06T06:14:26.001Z,13.73
2018-09-06T06:16:54.264Z,14.80
2018-09-06T06:19:22.544Z,14.40
2018-09-06T06:21:50.821Z,15.13
2018-09-06T06:24:19.154Z,14.10
2018-09-06T06:26:47.523Z,14.37
2018-09-06T06:29:15.863Z,14.00
2018-09-06T06:31:44.139Z,13.20
2018-09-06T06:34:12.400Z,13.80
2018-09-06T06:36:40.686Z,13.20
2018-09-06T06:39:10.435Z,14.50
2018-09-06T06:41:38.879Z,13.20
2018-09-06T06:44:07.147Z,13.53
2018-09-06T06:46:35.461Z,13.17
2018-09-06T06:49:05.125Z,13.77
2018-09-06T06:51:33.439Z,12.30
2018-09-06T06:54:01.698Z,12.70
2018-09-06T06:56:30.125Z,12.23
2018-09-06T06:58:58.432Z,12.17
2018-09-06T07:01:26.721Z,13.03
2018-09-06T07:03:54.998Z,12.67
2018-09-06T07:06:23.337Z,12.83
2018-09-06T07:08:51.659Z,11.70
2018-09-06T07:11:19.976Z,11.67
2018-09-06T07:13:48.255Z,11.87
2018-09-06T07:16:16.553Z,11.53
2018-09-06T07:18:44.867Z,11.77
2018-09-06T07:21:13.068Z,13.50
2018-09-06T07:23:41.360Z,14.00
2018-09-06T07:26:09.634Z,14.67
2018-09-06T07:28:37.923Z,14.50
2018-09-06T07:31:06.241Z,14.57
2018-09-06T07:33:34.547Z,14.20
2018-09-06T07:36:02.843Z,14.17
2018-09-06T07:38:31.228Z,15.20
2018-09-06T07:40:59.514Z,15.40
2018-09-06T07:43:27.821Z,18.50
2018-09-06T07:45:56.110Z,17.37
2018-09-06T07:48:24.396Z,16.77
2018-09-06T07:50:52.685Z,17.97
2018-09-06T07:53:20.989Z,17.53
2018-09-06T07:55:49.306Z,17.67
2018-09-06T07:58:17.566Z,16.13
2018-09-06T08:00:45.843Z,16.40
2018-09-06T08:03:14.173Z,15.27
2018-09-06T08:05:42.999Z,17.63
2018-09-06T08:08:11.416Z,15.17
2018-09-06T08:10:39.718Z,16.10
2018-09-06T08:13:08.022Z,15.20
2018-09-06T08:15:36.318Z,14.10
2018-09-06T08:18:04.832Z,14.20
2018-09-06T08:20:33.091Z,15.00
2018-09-06T08:23:01.624Z,14.23
2018-09-06T08:25:30.008Z,13.67
2018-09-06T08:27:58.315Z,12.80
2018-09-06T08:30:26.605Z,12.63
2018-09-06T08:32:54.851Z,11.93
2018-09-06T08:35:23.123Z,10.93
2018-09-06T08:37:51.406Z,10.80
2018-09-06T08:40:19.671Z,11.20
2018-09-06T08:42:48.036Z,11.30
2018-09-06T08:45:17.323Z,11.40
2018-09-06T08:47:45.622Z,12.00
2018-09-06T08:50:13.858Z,11.90
2018-09-06T08:52:42.155Z,10.90
2018-09-06T08:55:10.426Z,10.30
2018-09-06T08:57:38.699Z,11.53
2018-09-06T09:00:07.000Z,12.00
2018-09-06T09:02:35.400Z,11.70
2018-09-06T09:05:03.635Z,10.70
2018-09-06T09:07:31.933Z,12.23
2018-09-06T09:10:00.215Z,12.37
2018-09-06T09:12:28.525Z,12.47
2018-09-06T09:14:56.733Z,11.47
2018-09-06T09:17:25.008Z,12.07
2018-09-06T09:19:53.297Z,10.60
2018-09-06T09:22:21.579Z,11.17
2018-09-06T09:24:49.818Z,11.83
2018-09-06T09:27:18.065Z,10.23
2018-09-06T09:29:46.372Z,11.30
2018-09-06T09:32:14.643Z,10.67
2018-09-06T09:34:42.928Z,11.57
2018-09-06T09:37:11.258Z,11.57
2018-09-06T09:39:39.528Z,10.60
2018-09-06T09:42:07.816Z,11.93
2018-09-06T09:44:36.074Z,11.10
2018-09-06T09:49:31.844Z,11.20
2018-09-06T09:52:00.055Z,10.93
2018-09-06T09:54:28.405Z,11.27
2018-09-06T09:56:57.754Z,10.53
2018-09-06T09:59:26.063Z,11.03
2018-09-06T10:01:59.610Z,10.40
2018-09-06T10:04:33.109Z,11.50
2018-09-06T10:07:06.642Z,11.50
2018-09-06T10:09:34.928Z,10.60
2018-09-06T10:12:03.283Z,11.60
2018-09-06T10:14:31.655Z,11.30
2018-09-06T10:16:59.981Z,10.30
2018-09-06T10:19:28.282Z,12.17
2018-09-06T10:21:56.586Z,11.20
2018-09-06T10:24:24.877Z,12.00
2018-09-06T10:26:53.291Z,12.00
2018-09-06T10:29:21.649Z,10.77
2018-09-06T10:31:49.992Z,11.03
2018-09-06T10:34:18.316Z,12.10
2018-09-06T10:36:46.651Z,12.67
2018-09-06T10:39:15.062Z,12.53
2018-09-06T10:41:43.351Z,10.73
2018-09-06T10:44:11.638Z,10.70
2018-09-06T10:46:39.952Z,11.40
2018-09-06T10:49:08.223Z,10.97
2018-09-06T10:51:36.514Z,11.70
2018-09-06T10:54:04.846Z,10.80
2018-09-06T10:56:33.474Z,11.97
2018-09-06T10:59:01.776Z,10.70
2018-09-06T11:01:30.103Z,11.20
2018-09-06T11:03:58.763Z,10.80
2018-09-06T11:06:27.047Z,11.60
2018-09-06T11:08:55.338Z,11.73
2018-09-06T11:11:23.661Z,12.07
2018-09-06T11:13:52.028Z,11.80
2018-09-06T11:16:20.796Z,11.03
2018-09-06T11:18:49.100Z,11.80
2018-09-06T11:21:17.546Z,12.80
2018-09-06T11:23:45.768Z,13.10
2018-09-06T11:26:14.110Z,12.93
2018-09-06T11:28:42.627Z,12.10
2018-09-06T11:31:11.048Z,12.27
2018-09-06T11:33:39.481Z,11.23
2018-09-06T11:36:07.918Z,12.60
2018-09-06T11:38:44.418Z,11.90
2018-09-06T11:41:12.738Z,13.60
2018-09-06T11:43:41.050Z,14.23
2018-09-06T11:46:09.405Z,16.00
2018-09-06T11:48:37.661Z,16.87
2018-09-06T11:51:06.563Z,16.53
2018-09-06T11:53:34.832Z,17.83
2018-09-06T11:56:03.113Z,20.27
2018-09-06T11:58:31.368Z,19.70
2018-09-06T12:00:59.653Z,20.67
2018-09-06T12:03:27.918Z,21.60
2018-09-06T12:05:56.178Z,20.47
2018-09-06T12:08:24.466Z,19.33
2018-09-06T12:10:52.766Z,21.00
2018-09-06T12:13:21.057Z,22.50
2018-09-06T12:15:49.319Z,22.20
2018-09-06T12:18:17.568Z,21.20
2018-09-06T12:20:45.815Z,20.50
2018-09-06T12:23:14.082Z,22.03
2018-09-06T12:25:42.436Z,20.27
2018-09-06T12:28:10.656Z,21.57
2018-09-06T12:30:39.024Z,20.50
2018-09-06T12:33:07.305Z,20.90
2018-09-06T12:35:35.605Z,20.70
2018-09-06T12:38:03.917Z,21.73
2018-09-06T12:40:32.229Z,24.33
2018-09-06T12:43:00.550Z,25.27
2018-09-06T12:45:28.860Z,23.73
2018-09-06T12:47:57.154Z,21.00
2018-09-06T12:50:25.486Z,22.70
2018-09-06T12:52:53.784Z,21.07
2018-09-06T12:55:22.223Z,19.17
2018-09-06T12:57:50.489Z,18.00
2018-09-06T13:00:18.749Z,18.57
2018-09-06T13:02:46.998Z,20.20
2018-09-06T13:05:15.281Z,22.00
2018-09-06T13:07:43.588Z,17.97
2018-09-06T13:10:11.863Z,19.30
2018-09-06T13:12:40.211Z,20.83
2018-09-06T13:15:08.575Z,19.53
2018-09-06T13:17:37.045Z,18.57
2018-09-06T13:20:06.120Z,17.07
2018-09-06T13:22:34.546Z,19.17
2018-09-06T13:25:02.949Z,16.10
2018-09-06T13:27:31.556Z,19.60
2018-09-06T13:29:59.892Z,16.07
2018-09-06T13:32:28.435Z,17.50
2018-09-06T13:34:56.940Z,18.57
2018-09-06T13:37:25.352Z,18.17
2018-09-06T13:39:53.923Z,16.40
2018-09-06T13:42:22.413Z,15.20
2018-09-06T13:44:50.813Z,14.43
2018-09-06T13:47:19.385Z,15.80
2018-09-06T13:49:47.795Z,15.37
2018-09-06T13:52:16.318Z,14.40
2018-09-06T13:54:44.679Z,14.73
2018-09-06T13:57:13.053Z,13.70
2018-09-06T13:59:41.504Z,13.57
2018-09-06T14:02:10.027Z,13.30
2018-09-06T14:04:38.705Z,13.07
2018-09-06T14:07:07.048Z,11.90
2018-09-06T14:09:35.462Z,11.80
2018-09-06T14:12:04.575Z,12.17
2018-09-06T14:14:33.111Z,11.90
2018-09-06T14:17:01.736Z,10.70
2018-09-06T14:19:30.124Z,10.50
2018-09-06T14:21:58.522Z,11.00
2018-09-06T14:24:26.894Z,11.10
2018-09-06T14:26:55.279Z,10.10
2018-09-06T14:29:23.733Z,10.13
2018-09-06T14:31:52.131Z,10.70
2018-09-06T14:34:20.498Z,11.30
2018-09-06T14:36:48.894Z,12.53
2018-09-06T14:39:17.255Z,10.90
2018-09-06T14:41:45.572Z,11.40
2018-09-06T14:44:13.971Z,10.50
2018-09-06T14:46:42.314Z,10.13
2018-09-06T14:49:10.682Z,11.40
2018-09-06T14:51:39.091Z,11.20
2018-09-06T14:54:07.478Z,10.77
2018-09-06T14:56:35.939Z,10.03
2018-09-06T14:59:04.347Z,10.03
2018-09-06T15:01:32.865Z,10.70
2018-09-06T15:04:01.140Z,10.97
2018-09-06T15:06:29.618Z,11.03
2018-09-06T15:08:57.999Z,11.87
2018-09-06T15:11:26.398Z,12.13
2018-09-06T15:13:54.801Z,11.57
2018-09-06T15:16:23.147Z,11.87
2018-09-06T15:18:51.692Z,12.07
2018-09-06T15:21:20.112Z,11.67
2018-09-06T15:23:48.527Z,10.60
2018-09-06T15:26:16.938Z,10.23
2018-09-06T15:28:45.778Z,11.47
2018-09-06T15:31:14.290Z,11.07
2018-09-06T15:33:42.728Z,10.90
2018-09-06T15:36:11.168Z,9.10
2018-09-06T15:38:39.550Z,9.70
2018-09-06T15:41:07.936Z,9.67
2018-09-06T15:43:36.459Z,9.50
2018-09-06T15:46:04.887Z,9.87
2018-09-06T15:48:33.278Z,8.90
2018-09-06T15:51:01.620Z,10.80
2018-09-06T15:53:30.086Z,10.30
2018-09-06T15:55:58.640Z,10.10
2018-09-06T15:58:27.217Z,10.00
2018-09-06T16:00:55.634Z,9.77
2018-09-06T16:03:24.090Z,10.30
2018-09-06T16:05:52.528Z,9.50
2018-09-06T16:08:20.932Z,10.83
2018-09-06T16:10:49.974Z,11.37
2018-09-06T16:13:18.405Z,10.10
2018-09-06T16:15:46.825Z,11.03
2018-09-06T16:18:15.224Z,9.37
2018-09-06T16:20:43.630Z,9.80
2018-09-06T16:23:11.995Z,9.93
2018-09-06T16:25:40.382Z,10.60
2018-09-06T16:28:09.130Z,12.50
2018-09-06T16:30:37.529Z,11.93
2018-09-06T16:33:06.067Z,13.20
2018-09-06T16:35:34.885Z,12.30
2018-09-06T16:38:03.371Z,11.63
2018-09-06T16:40:31.767Z,11.27
2018-09-06T16:43:00.170Z,12.37
2018-09-06T16:45:28.577Z,12.40
2018-09-06T16:47:56.996Z,12.70
2018-09-06T16:50:25.536Z,13.47
2018-09-06T16:52:53.844Z,11.83
2018-09-06T16:55:22.244Z,14.40
2018-09-06T16:57:50.669Z,12.53
2018-09-06T17:00:19.022Z,13.50
2018-09-06T17:02:47.433Z,14.10
2018-09-06T17:05:15.810Z,13.90
2018-09-06T17:07:44.242Z,14.80
2018-09-06T17:10:12.712Z,13.90
2018-09-06T17:12:41.121Z,14.30
2018-09-06T17:15:09.560Z,14.77
2018-09-06T17:17:37.919Z,15.40
2018-09-06T17:20:07.096Z,17.10
2018-09-06T17:22:35.435Z,15.67
2018-09-06T17:25:05.281Z,16.50
2018-09-06T17:27:33.940Z,18.03
2018-09-06T17:30:02.572Z,16.47
2018-09-06T17:32:31.899Z,17.20
2018-09-06T17:35:01.650Z,17.10
2018-09-06T17:37:29.947Z,17.90
2018-09-06T17:39:58.298Z,16.90
2018-09-06T17:42:27.427Z,18.27
2018-09-06T17:44:55.714Z,17.13
2018-09-06T17:47:23.998Z,18.97
2018-09-06T17:49:52.295Z,18.20
2018-09-06T17:52:20.822Z,17.97
2018-09-06T17:54:49.379Z,19.30
2018-09-06T17:57:18.020Z,20.77
2018-09-06T17:59:46.486Z,20.10
2018-09-06T18:02:14.920Z,19.90
2018-09-06T18:04:43.252Z,20.90
2018-09-06T18:07:11.597Z,20.60
2018-09-06T18:12:16.836Z,19.70
2018-09-06T18:14:45.775Z,20.80
2018-09-06T18:17:14.193Z,22.83
2018-09-06T18:19:42.690Z,23.10
2018-09-06T18:22:11.055Z,21.50
2018-09-06T18:24:39.628Z,21.63
2018-09-06T18:27:07.964Z,21.27
2018-09-06T18:29:36.210Z,22.50
2018-09-06T18:32:04.463Z,22.77
2018-09-06T18:34:32.807Z,21.40
2018-09-06T18:37:01.071Z,21.87
2018-09-06T18:39:29.913Z,22.97
2018-09-06T18:41:58.345Z,22.30
2018-09-06T18:44:26.815Z,21.30
2018-09-06T18:46:56.106Z,23.40
2018-09-06T18:49:24.775Z,25.53
2018-09-06T18:51:53.191Z,23.40
2018-09-06T18:54:21.619Z,21.73
2018-09-06T18:56:51.233Z,21.43
2018-09-06T18:59:21.246Z,22.80
2018-09-06T19:01:50.036Z,22.10
2018-09-06T19:04:19.090Z,23.87
2018-09-06T19:09:27.969Z,22.67
2018-09-06T19:11:57.167Z,24.40
2018-09-06T19:14:26.714Z,23.60
2018-09-06T19:16:56.011Z,23.30
2018-09-06T19:19:24.430Z,23.30
2018-09-06T19:21:57.275Z,24.10
2018-09-06T19:24:26.498Z,24.40
2018-09-06T19:26:55.032Z,26.73
2018-09-06T19:29:24.529Z,23.70
2018-09-06T19:31:53.011Z,23.70
2018-09-06T19:34:21.417Z,25.80
2018-09-06T19:36:49.898Z,26.10
2018-09-06T19:39:18.354Z,25.90
2018-09-06T19:41:46.955Z,27.37
2018-09-06T19:44:15.436Z,27.03
2018-09-06T19:46:43.938Z,26.67
2018-09-06T19:49:12.515Z,26.37
2018-09-06T19:51:41.055Z,28.07
2018-09-06T19:54:09.338Z,29.70
2018-09-06T19:56:37.611Z,29.20
2018-09-06T19:59:06.221Z,30.27
2018-09-06T20:01:36.081Z,30.60
2018-09-06T20:04:04.712Z,29.90
2018-09-06T20:06:33.999Z,31.33
2018-09-06T20:09:02.602Z,32.80
2018-09-06T20:11:31.142Z,33.20
2018-09-06T20:13:59.507Z,34.50
2018-09-06T20:16:27.819Z,34.50
2018-09-06T20:18:56.149Z,39.73
2018-09-06T20:21:25.589Z,35.90
2018-09-06T20:23:54.042Z,37.37
2018-09-06T20:26:22.632Z,38.70
2018-09-06T20:28:51.213Z,38.90
2018-09-06T20:31:19.763Z,40.73
2018-09-06T20:33:48.366Z,38.90
2018-09-06T20:36:16.923Z,38.17
2018-09-06T20:38:45.354Z,40.33
2018-09-06T20:41:13.899Z,39.00
2018-09-06T20:43:48.947Z,38.13
2018-09-06T20:46:17.597Z,40.07
2018-09-06T20:48:46.276Z,40.13
2018-09-06T20:51:14.801Z,42.00
2018-09-06T20:53:43.117Z,44.43
2018-09-06T20:56:11.418Z,41.97
2018-09-06T20:58:39.908Z,43.27
2018-09-06T21:01:08.307Z,43.13
2018-09-06T21:03:36.716Z,42.20
2018-09-06T21:06:05.162Z,43.70
2018-09-06T21:08:33.598Z,44.67
2018-09-06T21:11:01.978Z,48.40
2018-09-06T21:13:30.459Z,47.00
2018-09-06T21:15:59.005Z,46.60
2018-09-06T21:18:27.451Z,50.30
2018-09-06T21:20:55.932Z,49.40
2018-09-06T21:23:24.475Z,50.27
2018-09-06T21:25:52.855Z,51.43
2018-09-06T21:28:21.300Z,50.10
2018-09-06T21:30:49.706Z,50.10
2018-09-06T21:33:17.983Z,49.93
2018-09-06T21:35:46.258Z,49.63
2018-09-06T21:38:14.635Z,48.83
2018-09-06T21:40:42.922Z,49.87
2018-09-06T21:43:11.195Z,50.70
2018-09-06T21:45:39.467Z,51.60
2018-09-06T21:48:07.747Z,49.70
2018-09-06T21:50:36.039Z,50.00
2018-09-06T21:53:04.474Z,50.40
2018-09-06T21:55:32.903Z,50.40
2018-09-06T21:58:01.331Z,54.57
2018-09-06T22:00:29.794Z,51.20
2018-09-06T22:03:04.177Z,53.53
2018-09-06T22:05:32.526Z,46.77
2018-09-06T22:08:00.835Z,43.77
2018-09-06T22:10:29.139Z,44.50
2018-09-06T22:12:57.405Z,42.67
2018-09-06T22:15:25.690Z,43.30
2018-09-06T22:17:53.972Z,45.93
2018-09-06T22:20:22.265Z,43.67
2018-09-06T22:22:50.559Z,45.33
2018-09-06T22:25:18.854Z,47.00
2018-09-06T22:27:47.135Z,44.83
2018-09-06T22:30:15.420Z,46.10
2018-09-06T22:32:43.691Z,44.00
2018-09-06T22:35:11.979Z,38.33
2018-09-06T22:37:40.274Z,37.30
2018-09-06T22:40:08.538Z,35.40
2018-09-06T22:42:36.814Z,36.97
2018-09-06T22:45:05.080Z,34.40
2018-09-06T22:47:33.348Z,37.00
2018-09-06T22:50:01.648Z,36.07
2018-09-06T22:52:29.934Z,36.60
2018-09-06T22:54:58.220Z,31.23
2018-09-06T22:57:26.478Z,32.27
2018-09-06T22:59:54.735Z,31.43
2018-09-06T23:02:23.007Z,30.77
2018-09-06T23:04:51.452Z,27.77
2018-09-06T23:07:19.780Z,27.17
2018-09-06T23:09:48.194Z,27.57
2018-09-06T23:12:16.786Z,27.17
2018-09-06T23:14:50.168Z,29.10
2018-09-06T23:17:18.459Z,27.97
2018-09-06T23:20:01.695Z,27.73
2018-09-06T23:22:38.844Z,26.43
2018-09-06T23:25:08.585Z,25.73
2018-09-06T23:27:36.882Z,26.40
2018-09-06T23:30:06.590Z,28.37
2018-09-06T23:32:35.082Z,29.63
2018-09-06T23:35:03.389Z,28.20
2018-09-06T23:37:31.769Z,25.03
2018-09-06T23:40:01.015Z,25.93
2018-09-06T23:42:29.290Z,26.27
2018-09-06T23:45:04.255Z,23.83
2018-09-06T23:47:34.542Z,22.50
2018-09-06T23:50:03.240Z,22.87
2018-09-06T23:52:32.579Z,24.03
2018-09-06T23:55:00.911Z,24.90
2018-09-06T23:57:42.642Z,24.73
